createdAt,value
2018-07-30T00:05:52.306Z,19.82
2018-07-30T00:11:47.281Z,23.1
2018-07-30T00:17:42.291Z,19.44
2018-07-30T00:23:37.315Z,20.55
2018-07-30T00:29:32.314Z,19.26
2018-07-30T00:35:27.287Z,20.06
2018-07-30T00:41:22.253Z,20.26
2018-07-30T00:47:17.293Z,21.81
2018-07-30T00:53:12.273Z,22.85
2018-07-30T00:59:07.310Z,24.67
2018-07-30T01:05:02.305Z,23.55
2018-07-30T01:10:57.266Z,23.43
2018-07-30T01:16:52.297Z,25.66
2018-07-30T01:22:47.286Z,18.53
2018-07-30T01:28:42.278Z,24.32
2018-07-30T01:34:37.262Z,18.44
2018-07-30T01:40:32.326Z,17.66
2018-07-30T01:46:27.288Z,17.48
2018-07-30T01:52:22.292Z,16.83
2018-07-30T01:58:17.314Z,18.01
2018-07-30T02:04:12.320Z,18.39
2018-07-30T02:10:07.344Z,24.6
2018-07-30T02:16:02.307Z,18.67
2018-07-30T02:21:57.314Z,18.91
2018-07-30T02:27:52.266Z,19.39
2018-07-30T02:33:47.269Z,18.17
2018-07-30T02:39:42.288Z,19.49
2018-07-30T02:45:37.311Z,18.1
2018-07-30T02:51:32.340Z,18.98
2018-07-30T02:57:27.431Z,20.42
2018-07-30T03:03:22.260Z,23.8
2018-07-30T03:09:17.323Z,20.9
2018-07-30T03:15:12.278Z,20.79
2018-07-30T03:21:07.303Z,22.19
2018-07-30T03:27:02.316Z,21.85
2018-07-30T03:32:57.314Z,20.85
2018-07-30T03:38:52.301Z,20.04
2018-07-30T03:44:47.330Z,18.55
2018-07-30T03:50:42.383Z,20.46
2018-07-30T03:56:37.328Z,20.6
2018-07-30T04:02:32.373Z,20.09
2018-07-30T04:08:27.367Z,40.65
2018-07-30T04:14:22.357Z,27.8
2018-07-30T04:20:17.331Z,24.12
2018-07-30T04:26:12.328Z,24.76
2018-07-30T04:32:07.321Z,22.29
2018-07-30T04:38:02.332Z,23.08
2018-07-30T04:43:57.346Z,23.19
2018-07-30T04:49:52.373Z,22.16
2018-07-30T04:55:47.320Z,20.44
2018-07-30T05:01:42.300Z,29.59
2018-07-30T05:07:37.317Z,21.99
2018-07-30T05:13:32.302Z,21.92
2018-07-30T05:19:27.470Z,23.98
2018-07-30T05:25:22.317Z,27.15
2018-07-30T05:31:17.378Z,25.24
2018-07-30T05:37:12.425Z,20.77
2018-07-30T05:43:07.306Z,21.96
2018-07-30T05:49:02.318Z,20.23
2018-07-30T05:54:57.352Z,19.19
2018-07-30T06:00:52.302Z,22.09
2018-07-30T06:06:47.354Z,19.62
2018-07-30T06:12:42.343Z,19.91
2018-07-30T06:18:37.339Z,24.33
2018-07-30T06:24:32.343Z,28.15
2018-07-30T06:36:22.335Z,26.1
2018-07-30T06:36:22.361Z,20.03
2018-07-30T06:42:17.325Z,20.91
2018-07-30T06:48:12.322Z,28.7
2018-07-30T07:11:52.329Z,20.73
2018-07-30T07:11:52.354Z,29.5
2018-07-30T07:17:47.344Z,26.86
2018-07-30T07:23:42.353Z,26.93
2018-07-30T07:29:37.344Z,22.75
2018-07-30T07:35:32.339Z,23.9
2018-07-30T07:41:27.373Z,25.39
2018-07-30T07:47:22.351Z,23.4
2018-07-30T07:53:17.365Z,20.87
2018-07-30T07:59:12.344Z,19.79
2018-07-30T08:05:07.397Z,32.36
2018-07-30T08:11:02.433Z,19.77
2018-07-30T08:16:57.356Z,20.59
2018-07-30T08:22:52.332Z,25.3
2018-07-30T08:28:47.375Z,21.59
2018-07-30T08:34:42.347Z,18.05
2018-07-30T08:40:37.335Z,18.47
2018-07-30T08:46:32.418Z,19.99
2018-07-30T08:52:27.410Z,18.22
2018-07-30T08:58:22.318Z,19.5
2018-07-30T09:04:17.369Z,16.29
2018-07-30T09:10:12.379Z,16.15
2018-07-30T09:16:07.366Z,17.34
2018-07-30T09:22:02.360Z,17.02
2018-07-30T09:27:57.373Z,19.2
2018-07-30T09:33:52.333Z,16.77
2018-07-30T09:39:47.346Z,12.93
2018-07-30T09:45:42.365Z,10.57
2018-07-30T09:51:37.362Z,9.18
2018-07-30T09:57:32.363Z,12.9
2018-07-30T10:03:27.351Z,10.2
2018-07-30T10:09:22.359Z,10.15
2018-07-30T10:15:17.360Z,10.11
2018-07-30T10:21:12.343Z,10.36
2018-07-30T10:27:07.366Z,13.36
2018-07-30T10:33:02.436Z,12
2018-07-30T10:38:57.401Z,12.4
2018-07-30T10:44:52.371Z,15.82
2018-07-30T10:50:47.370Z,8.54
2018-07-30T10:56:42.344Z,9.06
2018-07-30T11:02:37.388Z,8.18
2018-07-30T11:08:32.361Z,9.08
2018-07-30T11:14:27.372Z,11.56
2018-07-30T11:20:22.391Z,11.14
2018-07-30T11:26:17.374Z,9.01
2018-07-30T11:32:12.350Z,8.14
2018-07-30T11:38:07.392Z,29.74
2018-07-30T11:44:02.375Z,7.72
2018-07-30T11:49:57.393Z,11.31
2018-07-30T11:55:52.385Z,9.38
2018-07-30T12:01:47.467Z,10.5
2018-07-30T12:07:42.412Z,7.15
2018-07-30T12:13:37.502Z,10.04
2018-07-30T12:19:32.433Z,13.6
2018-07-30T12:25:27.383Z,8.11
2018-07-30T12:31:22.421Z,11.13
2018-07-30T12:37:17.380Z,11.96
2018-07-30T12:43:12.391Z,8.8
2018-07-30T12:49:07.394Z,10.66
2018-07-30T12:55:02.386Z,8.43
2018-07-30T13:00:57.407Z,12.17
2018-07-30T13:06:52.396Z,12.75
2018-07-30T13:12:47.412Z,13.13
2018-07-30T13:18:42.400Z,13.06
2018-07-30T13:24:37.400Z,12.67
2018-07-30T13:30:32.418Z,9.98
2018-07-30T13:36:27.414Z,10.86
2018-07-30T13:42:22.421Z,12.3
2018-07-30T13:48:17.390Z,11.95
2018-07-30T13:54:12.444Z,11.9
2018-07-30T14:00:07.456Z,8.72
2018-07-30T14:06:02.440Z,10.5
2018-07-30T14:11:57.401Z,10.64
2018-07-30T14:17:52.419Z,11.79
2018-07-30T14:23:47.392Z,11.83
2018-07-30T14:29:42.399Z,10.77
2018-07-30T14:35:37.590Z,10.48
2018-07-30T14:41:32.437Z,14.4
2018-07-30T14:47:27.399Z,16.18
2018-07-30T14:53:22.414Z,12.12
2018-07-30T14:59:17.470Z,12.12
2018-07-30T15:05:12.460Z,13.17
2018-07-30T15:11:07.408Z,15.57
2018-07-30T15:17:02.406Z,11.64
2018-07-30T15:22:57.488Z,12.78
2018-07-30T15:28:52.424Z,10.14
2018-07-30T15:34:47.414Z,13.52
2018-07-30T15:40:42.453Z,12
2018-07-30T15:46:37.430Z,9.98
2018-07-30T15:52:32.447Z,14.29
2018-07-30T15:58:27.480Z,11.18
2018-07-30T16:04:22.469Z,11.92
2018-07-30T16:10:17.437Z,11.59
2018-07-30T16:22:07.407Z,10.95
2018-07-30T16:28:02.429Z,9.73
2018-07-30T16:33:57.451Z,11.8
2018-07-30T16:39:52.530Z,13.74
2018-07-30T16:45:47.421Z,11.46
2018-07-30T16:51:42.464Z,10.83
2018-07-30T16:57:37.444Z,11.92
2018-07-30T17:03:32.453Z,10.58
2018-07-30T17:09:27.471Z,11.79
2018-07-30T17:21:19.293Z,27.48
2018-07-30T17:21:19.294Z,27.48
2018-07-30T19:13:42.505Z,21.45
2018-07-30T19:13:42.527Z,11.44
2018-07-30T19:13:42.549Z,18.37
2018-07-30T19:13:42.567Z,18.37
2018-07-30T19:13:42.574Z,18.37
2018-07-30T19:13:42.611Z,18.37
2018-07-30T19:13:42.621Z,18.37
2018-07-30T19:13:42.655Z,18.37
2018-07-30T19:13:42.667Z,18.37
2018-07-30T19:13:42.727Z,18.37
2018-07-30T19:13:42.740Z,18.37
2018-07-30T19:13:42.771Z,18.37
2018-07-30T19:13:42.789Z,18.37
2018-07-30T19:13:42.828Z,18.37
2018-07-30T19:13:42.872Z,18.37
2018-07-30T19:13:42.883Z,18.37
2018-07-30T19:13:42.925Z,18.37
2018-07-30T19:13:42.933Z,18.37
2018-07-30T19:13:42.977Z,18.37
2018-07-30T19:19:37.477Z,13.25
2018-07-30T19:25:32.489Z,11.94
2018-07-30T19:31:27.468Z,12.57
2018-07-30T19:37:22.470Z,13.43
2018-07-30T19:43:17.471Z,12.71
2018-07-30T19:55:07.493Z,19.47
2018-07-30T20:06:57.532Z,14.65
2018-07-30T20:12:52.445Z,21.92
2018-07-30T20:18:47.496Z,18.67
2018-07-30T20:24:42.570Z,15.3
2018-07-30T20:30:37.531Z,15.76
2018-07-30T20:36:32.503Z,20.12
2018-07-30T20:42:27.498Z,22.21
2018-07-30T20:48:22.486Z,18.83
2018-07-30T20:54:17.479Z,14.32
2018-07-30T21:00:12.486Z,15.99
2018-07-30T21:06:07.484Z,16.54
2018-07-30T21:12:02.489Z,18.45
2018-07-30T21:17:57.480Z,16.91
2018-07-30T21:23:52.511Z,14.14
2018-07-30T21:29:47.472Z,19.3
2018-07-30T21:35:42.471Z,18.2
2018-07-30T21:41:37.490Z,14.08
2018-07-30T21:47:32.468Z,16.92
2018-07-30T21:53:27.523Z,13.84
2018-07-30T21:59:22.474Z,14.83
2018-07-30T22:05:17.550Z,16.1
2018-07-30T22:11:12.510Z,14.28
2018-07-30T22:17:07.517Z,14.74
2018-07-30T22:23:02.492Z,13.57
2018-07-30T22:28:57.498Z,15.18
2018-07-30T22:34:52.513Z,13.32
2018-07-30T22:40:53.862Z,13.84
2018-07-30T22:46:42.559Z,14.83
2018-07-30T22:52:37.475Z,17.94
2018-07-30T22:58:32.539Z,57.16
2018-07-30T23:04:27.527Z,36.91
2018-07-30T23:10:22.498Z,14.5
2018-07-30T23:16:17.485Z,14.09
2018-07-30T23:22:12.510Z,14.2
2018-07-30T23:28:07.492Z,17.37
2018-07-30T23:34:02.502Z,19.99
2018-07-30T23:39:57.489Z,21.02
2018-07-30T23:45:52.524Z,16.22
2018-07-30T23:51:47.497Z,13.76
2018-07-30T23:57:42.524Z,14.83
